CheckWX is a tool to help pilots better visualize weather data.  It is not intended as a substitute for an official pre-flight weather briefing.

23:49:41 UTC

KORH TAF
Worcester Regional Airport
Worcester, Massachusetts, USA
KORH 182320Z 1900/1924 30009KT P6SM BKN350 FM190100 30008KT P6SM FEW250 FM191900 28005KT P6SM SKC

Oct-19@
00:00 UTC

Oct-19 @ 00:00 UTC

Oct-19@
01:00 UTC

Oct-19 @ 01:00 UTC

KORH 182320Z 1900/1924 30009KT P6SM BKN350
Wind
  • 300° at 9 KTS
Cloud Levels
  • Broken at 35,000' AGL

Oct-19@
01:00 UTC

Oct-19 @ 01:00 UTC

Oct-19@
19:00 UTC

Oct-19 @ 19:00 UTC

FM190100 30008KT P6SM FEW250

From

From Standard forecast or significant change

Wind
  • 300° at 8 KTS
Cloud Levels
  • Few at 25,000' AGL

Oct-19@
19:00 UTC

Oct-19 @ 19:00 UTC

Oct-20@
00:00 UTC

Oct-20 @ 00:00 UTC

FM191900 28005KT P6SM SKC

From

From Standard forecast or significant change

Wind
  • 280° at 5 KTS
Cloud Levels
  • Clear skies